sensor_id;sensor_type;location;lat;lon;timestamp;temperature;humidity
23597;DHT22;40226;50.874;4.394;2024-01-11T00:02:10;-2.10;99.90
23597;DHT22;40226;50.874;4.394;2024-01-11T00:04:35;-2.00;99.90
23597;DHT22;40226;50.874;4.394;2024-01-11T00:07:01;-2.00;99.90
23597;DHT22;40226;50.874;4.394;2024-01-11T00:09:26;-2.10;99.90
23597;DHT22;40226;50.874;4.394;2024-01-11T00:11:52;-2.00;99.90
23597;DHT22;40226;50.874;4.394;2024-01-11T00:14:18;-2.00;99.90
23597;DHT22;40226;50.874;4.394;2024-01-11T00:16:43;-1.90;99.90
23597;DHT22;40226;50.874;4.394;2024-01-11T00:19:09;-1.80;99.90
23597;DHT22;40226;50.874;4.394;2024-01-11T00:21:35;-1.90;99.90
23597;DHT22;40226;50.874;4.394;2024-01-11T00:24:00;-2.00;99.90
23597;DHT22;40226;50.874;4.394;2024-01-11T00:26:26;-1.90;99.90
23597;DHT22;40226;50.874;4.394;2024-01-11T00:28:51;-1.90;99.90
23597;DHT22;40226;50.874;4.394;2024-01-11T00:31:17;-1.90;99.90
23597;DHT22;40226;50.874;4.394;2024-01-11T00:33:43;-2.00;99.90
23597;DHT22;40226;50.874;4.394;2024-01-11T00:36:08;-1.80;99.90
23597;DHT22;40226;50.874;4.394;2024-01-11T00:38:34;-1.90;99.90
23597;DHT22;40226;50.874;4.394;2024-01-11T00:40:59;-1.90;99.90
23597;DHT22;40226;50.874;4.394;2024-01-11T00:43:25;-2.20;99.90
23597;DHT22;40226;50.874;4.394;2024-01-11T00:45:50;-2.30;99.90
23597;DHT22;40226;50.874;4.394;2024-01-11T00:48:16;-2.30;99.90
23597;DHT22;40226;50.874;4.394;2024-01-11T00:50:42;-2.00;99.90
23597;DHT22;40226;50.874;4.394;2024-01-11T00:53:07;-1.90;99.90
23597;DHT22;40226;50.874;4.394;2024-01-11T00:55:33;-2.10;99.90
23597;DHT22;40226;50.874;4.394;2024-01-11T00:57:59;-2.00;99.90
23597;DHT22;40226;50.874;4.394;2024-01-11T01:00:25;-2.00;99.90
23597;DHT22;40226;50.874;4.394;2024-01-11T01:02:50;-2.20;99.90
23597;DHT22;40226;50.874;4.394;2024-01-11T01:05:16;-2.20;99.90
23597;DHT22;40226;50.874;4.394;2024-01-11T01:07:41;-2.30;99.90
23597;DHT22;40226;50.874;4.394;2024-01-11T01:10:07;-2.20;99.90
23597;DHT22;40226;50.874;4.394;2024-01-11T01:12:34;-2.30;99.90
23597;DHT22;40226;50.874;4.394;2024-01-11T01:14:59;-2.30;99.90
23597;DHT22;40226;50.874;4.394;2024-01-11T01:17:25;-2.40;99.90
23597;DHT22;40226;50.874;4.394;2024-01-11T01:19:50;-2.50;99.90
23597;DHT22;40226;50.874;4.394;2024-01-11T01:22:16;-2.40;99.90
23597;DHT22;40226;50.874;4.394;2024-01-11T01:24:41;-2.30;99.90
23597;DHT22;40226;50.874;4.394;2024-01-11T01:27:07;-2.30;99.90
23597;DHT22;40226;50.874;4.394;2024-01-11T01:29:33;-2.30;99.90
23597;DHT22;40226;50.874;4.394;2024-01-11T01:31:58;-2.40;99.90
23597;DHT22;40226;50.874;4.394;2024-01-11T01:34:24;-2.40;99.90
23597;DHT22;40226;50.874;4.394;2024-01-11T01:36:49;-2.30;99.90
23597;DHT22;40226;50.874;4.394;2024-01-11T01:39:15;-2.20;99.90
23597;DHT22;40226;50.874;4.394;2024-01-11T01:41:41;-2.10;99.90
23597;DHT22;40226;50.874;4.394;2024-01-11T01:44:06;-2.30;99.90
23597;DHT22;40226;50.874;4.394;2024-01-11T01:46:32;-2.40;99.90
23597;DHT22;40226;50.874;4.394;2024-01-11T01:48:59;-2.10;99.90
23597;DHT22;40226;50.874;4.394;2024-01-11T01:51:29;-2.10;99.90
23597;DHT22;40226;50.874;4.394;2024-01-11T01:53:56;-2.10;99.90
23597;DHT22;40226;50.874;4.394;2024-01-11T01:56:23;-2.00;99.90
23597;DHT22;40226;50.874;4.394;2024-01-11T01:58:51;-2.00;99.90
23597;DHT22;40226;50.874;4.394;2024-01-11T02:01:17;-1.90;99.90
23597;DHT22;40226;50.874;4.394;2024-01-11T02:03:46;-2.00;99.90
23597;DHT22;40226;50.874;4.394;2024-01-11T02:06:13;-2.20;99.90
23597;DHT22;40226;50.874;4.394;2024-01-11T02:08:41;-2.30;99.90
23597;DHT22;40226;50.874;4.394;2024-01-11T02:11:07;-2.40;99.90
23597;DHT22;40226;50.874;4.394;2024-01-11T02:13:33;-2.30;99.90
23597;DHT22;40226;50.874;4.394;2024-01-11T02:15:59;-2.20;99.90
23597;DHT22;40226;50.874;4.394;2024-01-11T02:18:25;-2.30;99.90
23597;DHT22;40226;50.874;4.394;2024-01-11T02:20:51;-2.40;99.90
23597;DHT22;40226;50.874;4.394;2024-01-11T02:23:19;-2.50;99.90
23597;DHT22;40226;50.874;4.394;2024-01-11T02:25:46;-2.60;99.90
23597;DHT22;40226;50.874;4.394;2024-01-11T02:28:11;-2.70;99.90
23597;DHT22;40226;50.874;4.394;2024-01-11T02:30:37;-2.80;99.90
23597;DHT22;40226;50.874;4.394;2024-01-11T02:33:04;-2.60;99.90
23597;DHT22;40226;50.874;4.394;2024-01-11T02:35:31;-2.70;99.90
23597;DHT22;40226;50.874;4.394;2024-01-11T02:37:58;-2.70;99.90
23597;DHT22;40226;50.874;4.394;2024-01-11T02:40:26;-2.70;99.90
23597;DHT22;40226;50.874;4.394;2024-01-11T02:42:51;-2.80;99.90
23597;DHT22;40226;50.874;4.394;2024-01-11T02:45:17;-2.50;99.90
23597;DHT22;40226;50.874;4.394;2024-01-11T02:47:44;-2.50;99.90
23597;DHT22;40226;50.874;4.394;2024-01-11T02:50:10;-2.40;99.90
23597;DHT22;40226;50.874;4.394;2024-01-11T02:52:37;-2.60;99.90
23597;DHT22;40226;50.874;4.394;2024-01-11T02:55:03;-2.70;99.90
23597;DHT22;40226;50.874;4.394;2024-01-11T02:57:29;-2.70;99.90
23597;DHT22;40226;50.874;4.394;2024-01-11T02:59:54;-2.80;99.90
23597;DHT22;40226;50.874;4.394;2024-01-11T03:02:20;-2.70;99.90
23597;DHT22;40226;50.874;4.394;2024-01-11T03:04:46;-2.80;99.90
23597;DHT22;40226;50.874;4.394;2024-01-11T03:07:11;-2.60;99.90
23597;DHT22;40226;50.874;4.394;2024-01-11T03:09:37;-2.20;99.90
23597;DHT22;40226;50.874;4.394;2024-01-11T03:12:03;-2.30;99.90
23597;DHT22;40226;50.874;4.394;2024-01-11T03:14:28;-2.50;99.90
23597;DHT22;40226;50.874;4.394;2024-01-11T03:16:54;-2.70;99.90
23597;DHT22;40226;50.874;4.394;2024-01-11T03:19:19;-2.70;99.90
23597;DHT22;40226;50.874;4.394;2024-01-11T03:21:45;-2.80;99.90
23597;DHT22;40226;50.874;4.394;2024-01-11T03:24:12;-2.50;99.90
23597;DHT22;40226;50.874;4.394;2024-01-11T03:26:38;-2.50;99.90
23597;DHT22;40226;50.874;4.394;2024-01-11T03:29:04;-2.60;99.90
23597;DHT22;40226;50.874;4.394;2024-01-11T03:31:29;-2.60;99.90
23597;DHT22;40226;50.874;4.394;2024-01-11T03:33:55;-2.30;99.90
23597;DHT22;40226;50.874;4.394;2024-01-11T03:36:23;-2.10;99.90
23597;DHT22;40226;50.874;4.394;2024-01-11T03:38:50;-2.00;99.90
23597;DHT22;40226;50.874;4.394;2024-01-11T03:41:16;-2.10;99.90
23597;DHT22;40226;50.874;4.394;2024-01-11T03:43:41;-2.00;99.90
23597;DHT22;40226;50.874;4.394;2024-01-11T03:46:07;-2.20;99.90
23597;DHT22;40226;50.874;4.394;2024-01-11T03:48:33;-2.30;99.90
23597;DHT22;40226;50.874;4.394;2024-01-11T03:51:01;-2.60;99.90
23597;DHT22;40226;50.874;4.394;2024-01-11T03:53:26;-2.70;99.90
23597;DHT22;40226;50.874;4.394;2024-01-11T03:55:52;-3.00;99.90
23597;DHT22;40226;50.874;4.394;2024-01-11T03:58:17;-2.90;99.90
23597;DHT22;40226;50.874;4.394;2024-01-11T04:00:43;-3.10;99.90
23597;DHT22;40226;50.874;4.394;2024-01-11T04:03:08;-3.10;99.90
23597;DHT22;40226;50.874;4.394;2024-01-11T04:05:34;-3.10;99.90
23597;DHT22;40226;50.874;4.394;2024-01-11T04:08:02;-3.10;99.90
23597;DHT22;40226;50.874;4.394;2024-01-11T04:10:28;-3.10;99.90
23597;DHT22;40226;50.874;4.394;2024-01-11T04:12:54;-3.00;99.90
23597;DHT22;40226;50.874;4.394;2024-01-11T04:15:19;-2.90;99.90
23597;DHT22;40226;50.874;4.394;2024-01-11T04:17:45;-3.00;99.90
23597;DHT22;40226;50.874;4.394;2024-01-11T04:20:11;-2.90;99.90
23597;DHT22;40226;50.874;4.394;2024-01-11T04:22:36;-2.90;99.90
23597;DHT22;40226;50.874;4.394;2024-01-11T04:25:02;-2.80;99.90
23597;DHT22;40226;50.874;4.394;2024-01-11T04:27:28;-3.10;99.90
23597;DHT22;40226;50.874;4.394;2024-01-11T04:29:53;-3.10;99.90
23597;DHT22;40226;50.874;4.394;2024-01-11T04:32:19;-3.20;99.90
23597;DHT22;40226;50.874;4.394;2024-01-11T04:34:45;-3.00;99.90
23597;DHT22;40226;50.874;4.394;2024-01-11T04:37:10;-2.90;99.90
23597;DHT22;40226;50.874;4.394;2024-01-11T04:39:36;-2.90;99.90
23597;DHT22;40226;50.874;4.394;2024-01-11T04:42:02;-2.90;99.90
23597;DHT22;40226;50.874;4.394;2024-01-11T04:44:27;-2.80;99.90
23597;DHT22;40226;50.874;4.394;2024-01-11T04:46:53;-3.00;99.90
23597;DHT22;40226;50.874;4.394;2024-01-11T04:49:19;-3.00;99.90
23597;DHT22;40226;50.874;4.394;2024-01-11T04:51:44;-3.00;99.90
23597;DHT22;40226;50.874;4.394;2024-01-11T04:54:10;-2.80;99.90
23597;DHT22;40226;50.874;4.394;2024-01-11T04:56:35;-2.90;99.90
23597;DHT22;40226;50.874;4.394;2024-01-11T04:59:01;-2.80;99.90
23597;DHT22;40226;50.874;4.394;2024-01-11T05:01:26;-2.90;99.90
23597;DHT22;40226;50.874;4.394;2024-01-11T05:03:52;-2.90;99.90
23597;DHT22;40226;50.874;4.394;2024-01-11T05:06:19;-3.00;99.90
23597;DHT22;40226;50.874;4.394;2024-01-11T05:08:46;-2.90;99.90
23597;DHT22;40226;50.874;4.394;2024-01-11T05:11:19;-2.80;99.90
23597;DHT22;40226;50.874;4.394;2024-01-11T05:13:45;-2.90;99.90
23597;DHT22;40226;50.874;4.394;2024-01-11T05:16:26;-2.70;99.90
23597;DHT22;40226;50.874;4.394;2024-01-11T05:18:53;-2.80;99.90
23597;DHT22;40226;50.874;4.394;2024-01-11T05:21:19;-2.90;99.90
23597;DHT22;40226;50.874;4.394;2024-01-11T05:23:45;-2.90;99.90
23597;DHT22;40226;50.874;4.394;2024-01-11T05:26:12;-3.10;99.90
23597;DHT22;40226;50.874;4.394;2024-01-11T05:28:38;-3.00;99.90
23597;DHT22;40226;50.874;4.394;2024-01-11T05:31:13;-3.00;99.90
23597;DHT22;40226;50.874;4.394;2024-01-11T05:33:40;-3.00;99.90
23597;DHT22;40226;50.874;4.394;2024-01-11T05:36:07;-2.80;99.90
23597;DHT22;40226;50.874;4.394;2024-01-11T05:38:33;-3.00;99.90
23597;DHT22;40226;50.874;4.394;2024-01-11T05:40:59;-2.90;99.90
23597;DHT22;40226;50.874;4.394;2024-01-11T05:43:24;-2.80;99.90
23597;DHT22;40226;50.874;4.394;2024-01-11T05:45:51;-2.90;99.90
23597;DHT22;40226;50.874;4.394;2024-01-11T05:48:17;-3.00;99.90
23597;DHT22;40226;50.874;4.394;2024-01-11T05:50:43;-2.90;99.90
23597;DHT22;40226;50.874;4.394;2024-01-11T05:53:09;-3.00;99.90
23597;DHT22;40226;50.874;4.394;2024-01-11T05:55:35;-3.00;99.90
23597;DHT22;40226;50.874;4.394;2024-01-11T05:58:01;-3.00;99.90
23597;DHT22;40226;50.874;4.394;2024-01-11T06:00:26;-3.00;99.90
23597;DHT22;40226;50.874;4.394;2024-01-11T06:02:52;-3.00;99.90
23597;DHT22;40226;50.874;4.394;2024-01-11T06:05:18;-3.00;99.90
23597;DHT22;40226;50.874;4.394;2024-01-11T06:07:43;-2.90;99.90
23597;DHT22;40226;50.874;4.394;2024-01-11T06:10:09;-2.80;99.90
23597;DHT22;40226;50.874;4.394;2024-01-11T06:12:35;-2.90;99.90
23597;DHT22;40226;50.874;4.394;2024-01-11T06:15:01;-3.00;99.90
23597;DHT22;40226;50.874;4.394;2024-01-11T06:17:27;-2.80;99.90
23597;DHT22;40226;50.874;4.394;2024-01-11T06:19:53;-2.90;99.90
23597;DHT22;40226;50.874;4.394;2024-01-11T06:22:19;-3.00;99.90
23597;DHT22;40226;50.874;4.394;2024-01-11T06:24:44;-2.80;99.90
23597;DHT22;40226;50.874;4.394;2024-01-11T06:27:10;-2.80;99.90
23597;DHT22;40226;50.874;4.394;2024-01-11T06:29:36;-2.80;99.90
23597;DHT22;40226;50.874;4.394;2024-01-11T06:32:01;-3.00;99.90
23597;DHT22;40226;50.874;4.394;2024-01-11T06:34:27;-2.80;99.90
23597;DHT22;40226;50.874;4.394;2024-01-11T06:36:54;-3.00;99.90
23597;DHT22;40226;50.874;4.394;2024-01-11T06:39:20;-3.10;99.90
23597;DHT22;40226;50.874;4.394;2024-01-11T06:41:46;-3.20;99.90
23597;DHT22;40226;50.874;4.394;2024-01-11T06:44:12;-3.20;99.90
23597;DHT22;40226;50.874;4.394;2024-01-11T06:46:38;-3.30;99.90
23597;DHT22;40226;50.874;4.394;2024-01-11T06:49:07;-3.10;99.90
23597;DHT22;40226;50.874;4.394;2024-01-11T06:51:33;-3.10;99.90
23597;DHT22;40226;50.874;4.394;2024-01-11T06:53:59;-3.10;99.90
23597;DHT22;40226;50.874;4.394;2024-01-11T06:56:26;-3.10;99.90
23597;DHT22;40226;50.874;4.394;2024-01-11T06:58:52;-3.00;99.90
23597;DHT22;40226;50.874;4.394;2024-01-11T07:01:18;-2.90;99.90
23597;DHT22;40226;50.874;4.394;2024-01-11T07:03:44;-2.90;99.90
23597;DHT22;40226;50.874;4.394;2024-01-11T07:06:10;-2.90;99.90
23597;DHT22;40226;50.874;4.394;2024-01-11T07:08:36;-3.00;99.90
23597;DHT22;40226;50.874;4.394;2024-01-11T07:11:02;-3.10;99.90
23597;DHT22;40226;50.874;4.394;2024-01-11T07:13:28;-3.00;99.90
23597;DHT22;40226;50.874;4.394;2024-01-11T07:15:54;-3.10;99.90
23597;DHT22;40226;50.874;4.394;2024-01-11T07:18:21;-3.20;99.90
23597;DHT22;40226;50.874;4.394;2024-01-11T07:20:47;-3.10;99.90
23597;DHT22;40226;50.874;4.394;2024-01-11T07:23:13;-3.10;99.90
23597;DHT22;40226;50.874;4.394;2024-01-11T07:25:39;-3.20;99.90
23597;DHT22;40226;50.874;4.394;2024-01-11T07:28:06;-3.10;99.90
23597;DHT22;40226;50.874;4.394;2024-01-11T07:30:31;-2.90;99.90
23597;DHT22;40226;50.874;4.394;2024-01-11T07:32:57;-2.90;99.90
23597;DHT22;40226;50.874;4.394;2024-01-11T07:35:23;-2.70;99.90
23597;DHT22;40226;50.874;4.394;2024-01-11T07:37:48;-2.80;99.90
23597;DHT22;40226;50.874;4.394;2024-01-11T07:40:15;-3.00;99.90
23597;DHT22;40226;50.874;4.394;2024-01-11T07:42:42;-2.90;99.90
23597;DHT22;40226;50.874;4.394;2024-01-11T07:45:08;-3.10;99.90
23597;DHT22;40226;50.874;4.394;2024-01-11T07:47:37;-3.10;99.90
23597;DHT22;40226;50.874;4.394;2024-01-11T07:50:07;-3.00;99.90
23597;DHT22;40226;50.874;4.394;2024-01-11T07:52:33;-3.00;99.90
23597;DHT22;40226;50.874;4.394;2024-01-11T07:54:59;-3.20;99.90
23597;DHT22;40226;50.874;4.394;2024-01-11T07:57:34;-3.20;99.90
23597;DHT22;40226;50.874;4.394;2024-01-11T08:00:00;-3.30;99.90
23597;DHT22;40226;50.874;4.394;2024-01-11T08:02:26;-3.20;99.90
23597;DHT22;40226;50.874;4.394;2024-01-11T08:04:52;-3.30;99.90
23597;DHT22;40226;50.874;4.394;2024-01-11T08:07:17;-3.30;99.90
23597;DHT22;40226;50.874;4.394;2024-01-11T08:09:43;-3.30;99.90
23597;DHT22;40226;50.874;4.394;2024-01-11T08:12:12;-3.20;99.90
23597;DHT22;40226;50.874;4.394;2024-01-11T08:14:39;-3.10;99.90
23597;DHT22;40226;50.874;4.394;2024-01-11T08:17:04;-2.90;99.90
23597;DHT22;40226;50.874;4.394;2024-01-11T08:19:31;-3.00;99.90
23597;DHT22;40226;50.874;4.394;2024-01-11T08:21:56;-2.90;99.90
23597;DHT22;40226;50.874;4.394;2024-01-11T08:24:22;-3.00;99.90
23597;DHT22;40226;50.874;4.394;2024-01-11T08:26:48;-3.10;99.90
23597;DHT22;40226;50.874;4.394;2024-01-11T08:29:14;-3.20;99.90
23597;DHT22;40226;50.874;4.394;2024-01-11T08:31:40;-3.40;99.90
23597;DHT22;40226;50.874;4.394;2024-01-11T08:34:06;-3.30;99.90
23597;DHT22;40226;50.874;4.394;2024-01-11T08:36:32;-3.20;99.90
23597;DHT22;40226;50.874;4.394;2024-01-11T08:39:02;-3.00;99.90
23597;DHT22;40226;50.874;4.394;2024-01-11T08:41:31;-2.90;99.90
23597;DHT22;40226;50.874;4.394;2024-01-11T08:43:58;-2.90;99.90
23597;DHT22;40226;50.874;4.394;2024-01-11T08:46:26;-3.00;99.90
23597;DHT22;40226;50.874;4.394;2024-01-11T08:48:53;-2.90;99.90
23597;DHT22;40226;50.874;4.394;2024-01-11T08:51:19;-2.80;99.90
23597;DHT22;40226;50.874;4.394;2024-01-11T08:53:45;-2.90;99.90
23597;DHT22;40226;50.874;4.394;2024-01-11T08:56:10;-3.10;99.90
23597;DHT22;40226;50.874;4.394;2024-01-11T08:58:36;-3.10;99.90
23597;DHT22;40226;50.874;4.394;2024-01-11T09:01:02;-2.80;99.90
23597;DHT22;40226;50.874;4.394;2024-01-11T09:03:28;-2.90;99.90
23597;DHT22;40226;50.874;4.394;2024-01-11T09:05:54;-2.90;99.90
23597;DHT22;40226;50.874;4.394;2024-01-11T09:08:22;-2.70;99.90
23597;DHT22;40226;50.874;4.394;2024-01-11T09:10:48;-3.00;99.90
23597;DHT22;40226;50.874;4.394;2024-01-11T09:13:14;-3.00;99.90
23597;DHT22;40226;50.874;4.394;2024-01-11T09:15:41;-3.00;99.90
23597;DHT22;40226;50.874;4.394;2024-01-11T09:18:07;-2.90;99.90
23597;DHT22;40226;50.874;4.394;2024-01-11T09:20:33;-2.80;99.90
23597;DHT22;40226;50.874;4.394;2024-01-11T09:22:59;-2.60;99.90
23597;DHT22;40226;50.874;4.394;2024-01-11T09:25:24;-2.40;99.90
23597;DHT22;40226;50.874;4.394;2024-01-11T09:27:50;-2.30;99.90
23597;DHT22;40226;50.874;4.394;2024-01-11T09:30:16;-2.30;99.90
23597;DHT22;40226;50.874;4.394;2024-01-11T09:32:41;-2.20;99.90
23597;DHT22;40226;50.874;4.394;2024-01-11T09:35:07;-2.20;99.90
23597;DHT22;40226;50.874;4.394;2024-01-11T09:37:34;-2.30;99.90
23597;DHT22;40226;50.874;4.394;2024-01-11T09:39:59;-2.30;99.90
23597;DHT22;40226;50.874;4.394;2024-01-11T09:42:26;-2.30;99.90
23597;DHT22;40226;50.874;4.394;2024-01-11T09:44:54;-2.00;99.90
23597;DHT22;40226;50.874;4.394;2024-01-11T09:47:21;-2.00;99.90
23597;DHT22;40226;50.874;4.394;2024-01-11T09:49:49;-1.80;99.90
23597;DHT22;40226;50.874;4.394;2024-01-11T09:52:20;-1.70;99.90
23597;DHT22;40226;50.874;4.394;2024-01-11T09:54:47;-1.90;99.90
23597;DHT22;40226;50.874;4.394;2024-01-11T09:57:17;-2.00;99.90
23597;DHT22;40226;50.874;4.394;2024-01-11T09:59:45;-1.90;99.90
23597;DHT22;40226;50.874;4.394;2024-01-11T10:02:11;-1.90;99.90
23597;DHT22;40226;50.874;4.394;2024-01-11T10:04:37;-1.80;99.90
23597;DHT22;40226;50.874;4.394;2024-01-11T10:07:04;-2.10;99.90
23597;DHT22;40226;50.874;4.394;2024-01-11T10:09:31;-2.00;99.90
23597;DHT22;40226;50.874;4.394;2024-01-11T10:11:57;-1.90;99.90
23597;DHT22;40226;50.874;4.394;2024-01-11T10:14:22;-1.70;99.90
23597;DHT22;40226;50.874;4.394;2024-01-11T10:16:48;-1.70;99.90
23597;DHT22;40226;50.874;4.394;2024-01-11T10:19:14;-1.70;99.90
23597;DHT22;40226;50.874;4.394;2024-01-11T10:21:41;-1.60;99.90
23597;DHT22;40226;50.874;4.394;2024-01-11T10:24:07;-1.50;99.90
23597;DHT22;40226;50.874;4.394;2024-01-11T10:26:33;-1.50;99.90
23597;DHT22;40226;50.874;4.394;2024-01-11T10:28:59;-1.30;99.90
23597;DHT22;40226;50.874;4.394;2024-01-11T10:31:28;-1.20;99.90
23597;DHT22;40226;50.874;4.394;2024-01-11T10:33:54;-1.20;99.90
23597;DHT22;40226;50.874;4.394;2024-01-11T10:36:20;-0.90;99.90
23597;DHT22;40226;50.874;4.394;2024-01-11T10:38:47;-0.50;99.90
23597;DHT22;40226;50.874;4.394;2024-01-11T10:41:16;-0.20;99.90
23597;DHT22;40226;50.874;4.394;2024-01-11T10:43:43;0.30;99.90
23597;DHT22;40226;50.874;4.394;2024-01-11T10:46:12;0.80;99.90
23597;DHT22;40226;50.874;4.394;2024-01-11T10:48:39;1.30;99.90
23597;DHT22;40226;50.874;4.394;2024-01-11T10:51:08;1.40;99.90
23597;DHT22;40226;50.874;4.394;2024-01-11T10:53:43;1.80;99.90
23597;DHT22;40226;50.874;4.394;2024-01-11T10:56:11;1.80;99.90
23597;DHT22;40226;50.874;4.394;2024-01-11T10:58:41;2.30;99.90
23597;DHT22;40226;50.874;4.394;2024-01-11T11:01:11;1.90;99.90
23597;DHT22;40226;50.874;4.394;2024-01-11T11:03:38;1.70;99.90
23597;DHT22;40226;50.874;4.394;2024-01-11T11:06:07;2.10;99.90
23597;DHT22;40226;50.874;4.394;2024-01-11T11:08:34;2.20;99.90
23597;DHT22;40226;50.874;4.394;2024-01-11T11:11:01;2.10;99.90
23597;DHT22;40226;50.874;4.394;2024-01-11T11:13:29;2.10;99.90
23597;DHT22;40226;50.874;4.394;2024-01-11T11:15:54;2.20;99.90
23597;DHT22;40226;50.874;4.394;2024-01-11T11:18:23;2.10;99.90
23597;DHT22;40226;50.874;4.394;2024-01-11T11:20:50;2.50;99.90
23597;DHT22;40226;50.874;4.394;2024-01-11T11:23:18;2.60;99.90
23597;DHT22;40226;50.874;4.394;2024-01-11T11:25:48;3.20;99.90
23597;DHT22;40226;50.874;4.394;2024-01-11T11:28:17;3.30;99.90
23597;DHT22;40226;50.874;4.394;2024-01-11T11:30:44;3.30;99.90
23597;DHT22;40226;50.874;4.394;2024-01-11T11:33:18;3.30;99.90
23597;DHT22;40226;50.874;4.394;2024-01-11T11:35:45;2.90;99.90
23597;DHT22;40226;50.874;4.394;2024-01-11T11:38:28;2.70;99.90
23597;DHT22;40226;50.874;4.394;2024-01-11T11:40:56;2.30;99.90
23597;DHT22;40226;50.874;4.394;2024-01-11T11:43:22;2.30;99.90
23597;DHT22;40226;50.874;4.394;2024-01-11T11:45:49;2.40;99.90
23597;DHT22;40226;50.874;4.394;2024-01-11T11:51:14;2.60;99.90
23597;DHT22;40226;50.874;4.394;2024-01-11T11:53:41;2.50;99.90
23597;DHT22;40226;50.874;4.394;2024-01-11T11:56:08;2.90;99.90
23597;DHT22;40226;50.874;4.394;2024-01-11T11:58:35;2.80;99.90
23597;DHT22;40226;50.874;4.394;2024-01-11T12:01:01;2.40;99.90
23597;DHT22;40226;50.874;4.394;2024-01-11T12:03:35;2.20;99.90
23597;DHT22;40226;50.874;4.394;2024-01-11T12:06:05;2.40;99.90
23597;DHT22;40226;50.874;4.394;2024-01-11T12:08:31;2.40;99.90
23597;DHT22;40226;50.874;4.394;2024-01-11T12:10:58;2.50;99.90
23597;DHT22;40226;50.874;4.394;2024-01-11T12:13:25;2.70;99.90
23597;DHT22;40226;50.874;4.394;2024-01-11T12:15:51;3.00;99.90
23597;DHT22;40226;50.874;4.394;2024-01-11T12:18:17;3.20;99.90
23597;DHT22;40226;50.874;4.394;2024-01-11T12:20:42;3.40;99.90
23597;DHT22;40226;50.874;4.394;2024-01-11T12:23:08;3.60;99.90
23597;DHT22;40226;50.874;4.394;2024-01-11T12:25:35;3.20;99.90
23597;DHT22;40226;50.874;4.394;2024-01-11T12:28:01;3.30;99.90
23597;DHT22;40226;50.874;4.394;2024-01-11T12:30:27;3.70;99.90
23597;DHT22;40226;50.874;4.394;2024-01-11T12:32:56;3.70;99.90
23597;DHT22;40226;50.874;4.394;2024-01-11T12:35:22;3.90;99.90
23597;DHT22;40226;50.874;4.394;2024-01-11T12:38:05;4.10;99.90
23597;DHT22;40226;50.874;4.394;2024-01-11T12:40:37;4.40;99.90
23597;DHT22;40226;50.874;4.394;2024-01-11T12:43:04;4.60;99.90
23597;DHT22;40226;50.874;4.394;2024-01-11T12:45:31;4.50;99.90
23597;DHT22;40226;50.874;4.394;2024-01-11T12:47:58;4.30;99.90
23597;DHT22;40226;50.874;4.394;2024-01-11T12:50:25;4.10;99.90
23597;DHT22;40226;50.874;4.394;2024-01-11T12:53:11;3.70;99.90
23597;DHT22;40226;50.874;4.394;2024-01-11T12:55:46;3.70;99.90
23597;DHT22;40226;50.874;4.394;2024-01-11T12:58:12;3.80;99.90
23597;DHT22;40226;50.874;4.394;2024-01-11T13:00:38;4.00;99.90
23597;DHT22;40226;50.874;4.394;2024-01-11T13:03:04;4.60;99.90
23597;DHT22;40226;50.874;4.394;2024-01-11T13:05:31;5.00;99.90
23597;DHT22;40226;50.874;4.394;2024-01-11T13:08:01;4.70;99.90
23597;DHT22;40226;50.874;4.394;2024-01-11T13:10:28;4.40;99.90
23597;DHT22;40226;50.874;4.394;2024-01-11T13:12:54;4.30;99.90
23597;DHT22;40226;50.874;4.394;2024-01-11T13:15:20;4.20;99.90
23597;DHT22;40226;50.874;4.394;2024-01-11T13:17:46;4.00;99.90
23597;DHT22;40226;50.874;4.394;2024-01-11T13:20:11;3.80;99.90
23597;DHT22;40226;50.874;4.394;2024-01-11T13:22:37;3.00;99.90
23597;DHT22;40226;50.874;4.394;2024-01-11T13:25:03;2.70;99.90
23597;DHT22;40226;50.874;4.394;2024-01-11T13:27:30;2.60;99.90
23597;DHT22;40226;50.874;4.394;2024-01-11T13:29:56;2.40;99.90
23597;DHT22;40226;50.874;4.394;2024-01-11T13:32:23;2.30;99.90
23597;DHT22;40226;50.874;4.394;2024-01-11T13:34:49;2.20;99.90
23597;DHT22;40226;50.874;4.394;2024-01-11T13:37:18;2.20;99.90
23597;DHT22;40226;50.874;4.394;2024-01-11T13:39:44;2.10;99.90
23597;DHT22;40226;50.874;4.394;2024-01-11T13:42:10;2.30;99.90
23597;DHT22;40226;50.874;4.394;2024-01-11T13:44:36;2.10;99.90
23597;DHT22;40226;50.874;4.394;2024-01-11T13:47:02;2.00;99.90
23597;DHT22;40226;50.874;4.394;2024-01-11T13:49:27;2.10;99.90
23597;DHT22;40226;50.874;4.394;2024-01-11T13:51:53;2.10;99.90
23597;DHT22;40226;50.874;4.394;2024-01-11T13:54:19;2.10;99.90
23597;DHT22;40226;50.874;4.394;2024-01-11T13:56:46;2.10;99.90
23597;DHT22;40226;50.874;4.394;2024-01-11T13:59:12;2.20;99.90
23597;DHT22;40226;50.874;4.394;2024-01-11T14:01:37;2.10;99.90
23597;DHT22;40226;50.874;4.394;2024-01-11T14:04:03;2.10;99.90
23597;DHT22;40226;50.874;4.394;2024-01-11T14:06:29;2.20;99.90
23597;DHT22;40226;50.874;4.394;2024-01-11T14:08:55;2.20;99.90
23597;DHT22;40226;50.874;4.394;2024-01-11T14:11:21;2.30;99.90
23597;DHT22;40226;50.874;4.394;2024-01-11T14:13:46;2.20;99.90
23597;DHT22;40226;50.874;4.394;2024-01-11T14:16:12;2.00;99.90
23597;DHT22;40226;50.874;4.394;2024-01-11T14:18:39;2.00;99.90
23597;DHT22;40226;50.874;4.394;2024-01-11T14:21:05;2.00;99.90
23597;DHT22;40226;50.874;4.394;2024-01-11T14:23:31;2.00;99.90
23597;DHT22;40226;50.874;4.394;2024-01-11T14:25:57;2.00;99.90
23597;DHT22;40226;50.874;4.394;2024-01-11T14:28:22;2.00;99.90
23597;DHT22;40226;50.874;4.394;2024-01-11T14:30:48;2.00;99.90
23597;DHT22;40226;50.874;4.394;2024-01-11T14:33:14;1.90;99.90
23597;DHT22;40226;50.874;4.394;2024-01-11T14:35:39;2.00;99.90
23597;DHT22;40226;50.874;4.394;2024-01-11T14:38:05;2.20;99.90
23597;DHT22;40226;50.874;4.394;2024-01-11T14:40:31;2.20;99.90
23597;DHT22;40226;50.874;4.394;2024-01-11T14:42:56;2.20;99.90
23597;DHT22;40226;50.874;4.394;2024-01-11T14:45:22;2.00;99.90
23597;DHT22;40226;50.874;4.394;2024-01-11T14:47:47;1.90;99.90
23597;DHT22;40226;50.874;4.394;2024-01-11T14:50:13;2.00;99.90
23597;DHT22;40226;50.874;4.394;2024-01-11T14:52:39;2.00;99.90
23597;DHT22;40226;50.874;4.394;2024-01-11T14:55:06;1.90;99.90
23597;DHT22;40226;50.874;4.394;2024-01-11T14:57:32;2.10;99.90
23597;DHT22;40226;50.874;4.394;2024-01-11T14:59:57;2.00;99.90
23597;DHT22;40226;50.874;4.394;2024-01-11T15:02:23;1.80;99.90
23597;DHT22;40226;50.874;4.394;2024-01-11T15:04:49;1.90;99.90
23597;DHT22;40226;50.874;4.394;2024-01-11T15:07:15;1.90;99.90
23597;DHT22;40226;50.874;4.394;2024-01-11T15:09:41;1.90;99.90
23597;DHT22;40226;50.874;4.394;2024-01-11T15:12:06;1.80;99.90
23597;DHT22;40226;50.874;4.394;2024-01-11T15:14:32;2.00;99.90
23597;DHT22;40226;50.874;4.394;2024-01-11T15:16:58;1.80;99.90
23597;DHT22;40226;50.874;4.394;2024-01-11T15:19:24;1.80;99.90
23597;DHT22;40226;50.874;4.394;2024-01-11T15:21:49;1.90;99.90
23597;DHT22;40226;50.874;4.394;2024-01-11T15:24:16;1.70;99.90
23597;DHT22;40226;50.874;4.394;2024-01-11T15:26:44;1.70;99.90
23597;DHT22;40226;50.874;4.394;2024-01-11T15:29:10;1.80;99.90
23597;DHT22;40226;50.874;4.394;2024-01-11T15:31:35;1.70;99.90
23597;DHT22;40226;50.874;4.394;2024-01-11T15:34:04;1.70;99.90